PWSweather.com
Personal Weather Stations
Station Observations
ANTHEMNP
Anthem North Parkside, Anthem, AZ 85086

Anthem North ParksideAnthem, AZ 85086

Lat: 33.876464, Lon: -112.13861199999997

Elevation: 1930

Station Type: Davis Vantage Vue with Pro 2 console

http://www.azjerry.com/ANPW/wxindex.php

High Low Average
Temperature 105.7°F40.9°C 77.7°F25.4°C 94.2°F34.6°C
Dew Point 62.0°F16.7°C 43.0°F6.1°C 53.4°F11.9°C
Winds 5.1 mph 8.2 kmh Calm Calm 2.0 mph SSE3.2 kmh SSE
Wind Gusts 14.0 mph22.5 kmh -- 6.0 mph9.7 kmh
Humidity 42% 16% 26%
Pressure 29.84 in1010.5 mb 29.84 in1010.5 mb -
Precipitation 0.00 in0.0 mm - -
Hour Temp Dew Point Humidity Winds Wind Gusts Pressure Precip Precip Rate Daily Precip Total
12:00 AM 88.5°F31.4°C 49.0°F9.4°C 26% Calm Calm -- 29.84 in1010.5 mb 0.00 in0.0 mm 0.00 in0.0 mm 0.00 in0.0 mm
12:10 AM 88.2°F31.2°C 50.0°F10.0°C 27% Calm Calm 1.0 mph1.6 kmh 29.84 in1010.5 mb 0.00 in0.0 mm 0.00 in0.0 mm 0.00 in0.0 mm
12:20 AM 88.2°F31.2°C 50.0°F10.0°C 27% 0.2 mph NNE0.3 kmh NNE 1.0 mph1.6 kmh 29.84 in1010.5 mb 0.00 in0.0 mm 0.00 in0.0 mm 0.00 in0.0 mm
12:30 AM 88.3°F31.3°C 51.0°F10.6°C 28% Calm Calm 1.0 mph1.6 kmh 29.84 in1010.5 mb 0.00 in0.0 mm 0.00 in0.0 mm 0.00 in0.0 mm
12:40 AM 88.2°F31.2°C 52.0°F11.1°C 29% Calm Calm 1.0 mph1.6 kmh 29.84 in1010.5 mb 0.00 in0.0 mm 0.00 in0.0 mm 0.00 in0.0 mm
12:50 AM 87.4°F30.8°C 52.0°F11.1°C 30% Calm Calm -- 29.84 in1010.5 mb 0.00 in0.0 mm 0.00 in0.0 mm 0.00 in0.0 mm
01:00 AM 86.7°F30.4°C 53.0°F11.7°C 31% Calm Calm 1.0 mph1.6 kmh 29.84 in1010.5 mb 0.00 in0.0 mm 0.00 in0.0 mm 0.00 in0.0 mm
01:10 AM 86.6°F30.3°C 53.0°F11.7°C 31% Calm Calm 1.0 mph1.6 kmh 29.84 in1010.5 mb 0.00 in0.0 mm 0.00 in0.0 mm 0.00 in0.0 mm
01:20 AM 86.2°F30.1°C 52.0°F11.1°C 31% Calm Calm -- 29.84 in1010.5 mb 0.00 in0.0 mm 0.00 in0.0 mm 0.00 in0.0 mm
01:30 AM 85.9°F29.9°C 53.0°F11.7°C 32% Calm Calm -- 29.84 in1010.5 mb 0.00 in0.0 mm 0.00 in0.0 mm 0.00 in0.0 mm
01:40 AM 85.9°F29.9°C 54.0°F12.2°C 33% Calm Calm -- 29.84 in1010.5 mb 0.00 in0.0 mm 0.00 in0.0 mm 0.00 in0.0 mm
01:50 AM 85.9°F29.9°C 54.0°F12.2°C 33% Calm Calm 1.0 mph1.6 kmh 29.84 in1010.5 mb 0.00 in0.0 mm 0.00 in0.0 mm 0.00 in0.0 mm
02:00 AM 86.3°F30.2°C 53.0°F11.7°C 32% Calm Calm 1.0 mph1.6 kmh 29.84 in1010.5 mb 0.00 in0.0 mm 0.00 in0.0 mm 0.00 in0.0 mm
02:10 AM 85.9°F29.9°C 53.0°F11.7°C 32% Calm Calm 1.0 mph1.6 kmh 29.84 in1010.5 mb 0.00 in0.0 mm 0.00 in0.0 mm 0.00 in0.0 mm
02:20 AM 84.9°F29.4°C 53.0°F11.7°C 33% 2.0 mph NE3.2 kmh NE 4.0 mph6.4 kmh 29.84 in1010.5 mb 0.00 in0.0 mm 0.00 in0.0 mm 0.00 in0.0 mm
02:30 AM 85.7°F29.8°C 53.0°F11.7°C 33% 1.6 mph E2.6 kmh E 4.0 mph6.4 kmh 29.84 in1010.5 mb 0.00 in0.0 mm 0.00 in0.0 mm 0.00 in0.0 mm
02:40 AM 85.8°F29.9°C 53.0°F11.7°C 32% 0.2 mph NE0.3 kmh NE 1.0 mph1.6 kmh 29.84 in1010.5 mb 0.00 in0.0 mm 0.00 in0.0 mm 0.00 in0.0 mm
02:50 AM 85.6°F29.8°C 53.0°F11.7°C 32% 0.3 mph S0.5 kmh S 4.0 mph6.4 kmh 29.84 in1010.5 mb 0.00 in0.0 mm 0.00 in0.0 mm 0.00 in0.0 mm
03:00 AM 84.2°F29.0°C 53.0°F11.7°C 34% Calm Calm -- 29.84 in1010.5 mb 0.00 in0.0 mm 0.00 in0.0 mm 0.00 in0.0 mm
03:10 AM 83.0°F28.3°C 53.0°F11.7°C 36% Calm Calm 1.0 mph1.6 kmh 29.84 in1010.5 mb 0.00 in0.0 mm 0.00 in0.0 mm 0.00 in0.0 mm
03:20 AM 82.8°F28.2°C 53.0°F11.7°C 36% Calm Calm -- 29.84 in1010.5 mb 0.00 in0.0 mm 0.00 in0.0 mm 0.00 in0.0 mm
03:30 AM 82.2°F27.9°C 53.0°F11.7°C 36% Calm Calm -- 29.84 in1010.5 mb 0.00 in0.0 mm 0.00 in0.0 mm 0.00 in0.0 mm
03:40 AM 81.2°F27.3°C 52.0°F11.1°C 37% Calm Calm -- 29.84 in1010.5 mb 0.00 in0.0 mm 0.00 in0.0 mm 0.00 in0.0 mm
03:50 AM 81.0°F27.2°C 52.0°F11.1°C 36% Calm Calm -- 29.84 in1010.5 mb 0.00 in0.0 mm 0.00 in0.0 mm 0.00 in0.0 mm
04:00 AM 80.2°F26.8°C 52.0°F11.1°C 37% Calm Calm -- 29.84 in1010.5 mb 0.00 in0.0 mm 0.00 in0.0 mm 0.00 in0.0 mm
04:10 AM 79.4°F26.3°C 50.0°F10.0°C 36% Calm Calm -- 29.84 in1010.5 mb 0.00 in0.0 mm 0.00 in0.0 mm 0.00 in0.0 mm
04:20 AM 79.1°F26.2°C 47.0°F8.3°C 32% 0.1 mph NNE0.2 kmh NNE 2.0 mph3.2 kmh 29.84 in1010.5 mb 0.00 in0.0 mm 0.00 in0.0 mm 0.00 in0.0 mm
04:30 AM 79.1°F26.2°C 43.0°F6.1°C 28% Calm Calm 2.0 mph3.2 kmh 29.84 in1010.5 mb 0.00 in0.0 mm 0.00 in0.0 mm 0.00 in0.0 mm
04:40 AM 79.8°F26.6°C 44.0°F6.7°C 28% 0.5 mph NNE0.8 kmh NNE 2.0 mph3.2 kmh 29.84 in1010.5 mb 0.00 in0.0 mm 0.00 in0.0 mm 0.00 in0.0 mm
04:50 AM 79.4°F26.3°C 44.0°F6.7°C 29% Calm Calm 1.0 mph1.6 kmh 29.84 in1010.5 mb 0.00 in0.0 mm 0.00 in0.0 mm 0.00 in0.0 mm
05:00 AM 79.1°F26.2°C 45.0°F7.2°C 30% 0.3 mph N0.5 kmh N 3.0 mph4.8 kmh 29.84 in1010.5 mb 0.00 in0.0 mm 0.00 in0.0 mm 0.00 in0.0 mm
05:10 AM 78.9°F26.1°C 47.0°F8.3°C 33% Calm Calm 1.0 mph1.6 kmh 29.84 in1010.5 mb 0.00 in0.0 mm 0.00 in0.0 mm 0.00 in0.0 mm
05:20 AM 78.2°F25.7°C 46.0°F7.8°C 32% Calm Calm 1.0 mph1.6 kmh 29.84 in1010.5 mb 0.00 in0.0 mm 0.00 in0.0 mm 0.00 in0.0 mm
05:30 AM 77.7°F25.4°C 46.0°F7.8°C 33% 0.1 mph N0.2 kmh N 1.0 mph1.6 kmh 29.84 in1010.5 mb 0.00 in0.0 mm 0.00 in0.0 mm 0.00 in0.0 mm
05:40 AM 78.4°F25.8°C 48.0°F8.9°C 34% 0.3 mph N0.5 kmh N 1.0 mph1.6 kmh 29.84 in1010.5 mb 0.00 in0.0 mm 0.00 in0.0 mm 0.00 in0.0 mm
05:50 AM 78.9°F26.1°C 44.0°F6.7°C 29% 0.8 mph NE1.3 kmh NE 2.0 mph3.2 kmh 29.84 in1010.5 mb 0.00 in0.0 mm 0.00 in0.0 mm 0.00 in0.0 mm
06:00 AM 79.0°F26.1°C 44.0°F6.7°C 29% 0.2 mph NE0.3 kmh NE 1.0 mph1.6 kmh 29.84 in1010.5 mb 0.00 in0.0 mm 0.00 in0.0 mm 0.00 in0.0 mm
06:10 AM 78.9°F26.1°C 49.0°F9.4°C 35% 0.1 mph ESE0.2 kmh ESE 1.0 mph1.6 kmh 29.84 in1010.5 mb 0.00 in0.0 mm 0.00 in0.0 mm 0.00 in0.0 mm
06:20 AM 79.4°F26.3°C 54.0°F12.2°C 41% 0.2 mph ESE0.3 kmh ESE 1.0 mph1.6 kmh 29.84 in1010.5 mb 0.00 in0.0 mm 0.00 in0.0 mm 0.00 in0.0 mm
06:30 AM 80.0°F26.7°C 55.0°F12.8°C 42% 0.1 mph SE0.2 kmh SE 2.0 mph3.2 kmh 29.84 in1010.5 mb 0.00 in0.0 mm 0.00 in0.0 mm 0.00 in0.0 mm
06:40 AM 81.0°F27.2°C 55.0°F12.8°C 41% 0.3 mph SE0.5 kmh SE 1.0 mph1.6 kmh 29.84 in1010.5 mb 0.00 in0.0 mm 0.00 in0.0 mm 0.00 in0.0 mm
06:50 AM 82.2°F27.9°C 56.0°F13.3°C 41% 0.3 mph SE0.5 kmh SE 2.0 mph3.2 kmh 29.84 in1010.5 mb 0.00 in0.0 mm 0.00 in0.0 mm 0.00 in0.0 mm
07:00 AM 82.4°F28.0°C 56.0°F13.3°C 40% 1.5 mph SE2.4 kmh SE 3.0 mph4.8 kmh 29.84 in1010.5 mb 0.00 in0.0 mm 0.00 in0.0 mm 0.00 in0.0 mm
07:10 AM 83.1°F28.4°C 57.0°F13.9°C 41% 1.1 mph SE1.8 kmh SE 3.0 mph4.8 kmh 29.84 in1010.5 mb 0.00 in0.0 mm 0.00 in0.0 mm 0.00 in0.0 mm
07:20 AM 85.0°F29.4°C 57.0°F13.9°C 39% 0.5 mph SE0.8 kmh SE 3.0 mph4.8 kmh 29.84 in1010.5 mb 0.00 in0.0 mm 0.00 in0.0 mm 0.00 in0.0 mm
07:30 AM 86.8°F30.4°C 58.0°F14.4°C 37% 1.1 mph SE1.8 kmh SE 3.0 mph4.8 kmh 29.84 in1010.5 mb 0.00 in0.0 mm 0.00 in0.0 mm 0.00 in0.0 mm
07:40 AM 88.7°F31.5°C 57.0°F13.9°C 34% 0.9 mph S1.4 kmh S 3.0 mph4.8 kmh 29.84 in1010.5 mb 0.00 in0.0 mm 0.00 in0.0 mm 0.00 in0.0 mm
07:50 AM 89.8°F32.1°C 57.0°F13.9°C 33% 1.0 mph SE1.6 kmh SE 3.0 mph4.8 kmh 29.84 in1010.5 mb 0.00 in0.0 mm 0.00 in0.0 mm 0.00 in0.0 mm
08:00 AM 90.8°F32.7°C 55.0°F12.8°C 30% 0.5 mph SSW0.8 kmh SSW 3.0 mph4.8 kmh 29.84 in1010.5 mb 0.00 in0.0 mm 0.00 in0.0 mm 0.00 in0.0 mm
08:10 AM 91.4°F33.0°C 54.0°F12.2°C 28% 1.0 mph SE1.6 kmh SE 2.0 mph3.2 kmh 29.84 in1010.5 mb 0.00 in0.0 mm 0.00 in0.0 mm 0.00 in0.0 mm
08:20 AM 92.7°F33.7°C 54.0°F12.2°C 27% 1.6 mph SE2.6 kmh SE 3.0 mph4.8 kmh 29.84 in1010.5 mb 0.00 in0.0 mm 0.00 in0.0 mm 0.00 in0.0 mm
08:30 AM 92.8°F33.8°C 53.0°F11.7°C 26% 1.4 mph SW2.3 kmh SW 4.0 mph6.4 kmh 29.84 in1010.5 mb 0.00 in0.0 mm 0.00 in0.0 mm 0.00 in0.0 mm
08:40 AM 93.5°F34.2°C 54.0°F12.2°C 26% 0.8 mph N1.3 kmh N 4.0 mph6.4 kmh 29.84 in1010.5 mb 0.00 in0.0 mm 0.00 in0.0 mm 0.00 in0.0 mm
08:50 AM 94.7°F34.8°C 54.0°F12.2°C 25% 1.3 mph SE2.1 kmh SE 5.0 mph8.0 kmh 29.84 in1010.5 mb 0.00 in0.0 mm 0.00 in0.0 mm 0.00 in0.0 mm
09:00 AM 94.7°F34.8°C 56.0°F13.3°C 27% 2.1 mph SW3.4 kmh SW 6.0 mph9.7 kmh 29.84 in1010.5 mb 0.00 in0.0 mm 0.00 in0.0 mm 0.00 in0.0 mm
09:10 AM 94.9°F34.9°C 57.0°F13.9°C 28% 1.8 mph W2.9 kmh W 5.0 mph8.0 kmh 29.84 in1010.5 mb 0.00 in0.0 mm 0.00 in0.0 mm 0.00 in0.0 mm
09:20 AM 95.2°F35.1°C 56.0°F13.3°C 27% 1.6 mph SSW2.6 kmh SSW 6.0 mph9.7 kmh 29.84 in1010.5 mb 0.00 in0.0 mm 0.00 in0.0 mm 0.00 in0.0 mm
09:30 AM 96.2°F35.7°C 57.0°F13.9°C 27% 0.7 mph SSW1.1 kmh SSW 3.0 mph4.8 kmh 29.84 in1010.5 mb 0.00 in0.0 mm 0.00 in0.0 mm 0.00 in0.0 mm
09:40 AM 95.7°F35.4°C 56.0°F13.3°C 26% 1.7 mph S2.7 kmh S 7.0 mph11.3 kmh 29.84 in1010.5 mb 0.00 in0.0 mm 0.00 in0.0 mm 0.00 in0.0 mm
09:50 AM 95.5°F35.3°C 56.0°F13.3°C 26% 2.4 mph SE3.9 kmh SE 5.0 mph8.0 kmh 29.84 in1010.5 mb 0.00 in0.0 mm 0.00 in0.0 mm 0.00 in0.0 mm
10:00 AM 96.0°F35.6°C 57.0°F13.9°C 27% 2.9 mph SE4.7 kmh SE 8.0 mph12.9 kmh 29.84 in1010.5 mb 0.00 in0.0 mm 0.00 in0.0 mm 0.00 in0.0 mm
10:10 AM 96.2°F35.7°C 57.0°F13.9°C 27% 2.8 mph SSW4.5 kmh SSW 7.0 mph11.3 kmh 29.84 in1010.5 mb 0.00 in0.0 mm 0.00 in0.0 mm 0.00 in0.0 mm
10:20 AM 96.0°F35.6°C 57.0°F13.9°C 27% 3.0 mph S4.8 kmh S 8.0 mph12.9 kmh 29.84 in1010.5 mb 0.00 in0.0 mm 0.00 in0.0 mm 0.00 in0.0 mm
10:30 AM 97.1°F36.2°C 57.0°F13.9°C 26% 2.1 mph SW3.4 kmh SW 11.0 mph17.7 kmh 29.84 in1010.5 mb 0.00 in0.0 mm 0.00 in0.0 mm 0.00 in0.0 mm
10:40 AM 97.6°F36.4°C 57.0°F13.9°C 26% 1.1 mph E1.8 kmh E 4.0 mph6.4 kmh 29.84 in1010.5 mb 0.00 in0.0 mm 0.00 in0.0 mm 0.00 in0.0 mm
10:50 AM 98.2°F36.8°C 57.0°F13.9°C 25% 1.3 mph SE2.1 kmh SE 8.0 mph12.9 kmh 29.84 in1010.5 mb 0.00 in0.0 mm 0.00 in0.0 mm 0.00 in0.0 mm
11:00 AM 98.4°F36.9°C 57.0°F13.9°C 25% 2.7 mph SSW4.3 kmh SSW 6.0 mph9.7 kmh 29.84 in1010.5 mb 0.00 in0.0 mm 0.00 in0.0 mm 0.00 in0.0 mm
11:10 AM 98.3°F36.8°C 57.0°F13.9°C 25% 0.8 mph E1.3 kmh E 7.0 mph11.3 kmh 29.84 in1010.5 mb 0.00 in0.0 mm 0.00 in0.0 mm 0.00 in0.0 mm
11:20 AM 98.4°F36.9°C 56.0°F13.3°C 24% 2.3 mph SE3.7 kmh SE 8.0 mph12.9 kmh 29.84 in1010.5 mb 0.00 in0.0 mm 0.00 in0.0 mm 0.00 in0.0 mm
11:30 AM 100.1°F37.8°C 56.0°F13.3°C 23% 1.8 mph SE2.9 kmh SE 5.0 mph8.0 kmh 29.84 in1010.5 mb 0.00 in0.0 mm 0.00 in0.0 mm 0.00 in0.0 mm
11:40 AM 99.2°F37.3°C 58.0°F14.4°C 25% 2.9 mph SSW4.7 kmh SSW 7.0 mph11.3 kmh 29.84 in1010.5 mb 0.00 in0.0 mm 0.00 in0.0 mm 0.00 in0.0 mm
11:50 AM 99.3°F37.4°C 57.0°F13.9°C 24% 3.0 mph W4.8 kmh W 7.0 mph11.3 kmh 29.84 in1010.5 mb 0.00 in0.0 mm 0.00 in0.0 mm 0.00 in0.0 mm
12:00 PM 100.0°F37.8°C 57.0°F13.9°C 24% 2.2 mph SSE3.5 kmh SSE 10.0 mph16.1 kmh 29.84 in1010.5 mb 0.00 in0.0 mm 0.00 in0.0 mm 0.00 in0.0 mm
12:10 PM 100.2°F37.9°C 56.0°F13.3°C 23% 3.9 mph W6.3 kmh W 10.0 mph16.1 kmh 29.84 in1010.5 mb 0.00 in0.0 mm 0.00 in0.0 mm 0.00 in0.0 mm
12:20 PM 100.8°F38.2°C 57.0°F13.9°C 23% 1.5 mph SE2.4 kmh SE 7.0 mph11.3 kmh 29.84 in1010.5 mb 0.00 in0.0 mm 0.00 in0.0 mm 0.00 in0.0 mm
12:30 PM 100.6°F38.1°C 55.0°F12.8°C 22% 2.4 mph SE3.9 kmh SE 9.0 mph14.5 kmh 29.84 in1010.5 mb 0.00 in0.0 mm 0.00 in0.0 mm 0.00 in0.0 mm
12:40 PM 101.3°F38.5°C 56.0°F13.3°C 22% 2.6 mph SE4.2 kmh SE 9.0 mph14.5 kmh 29.84 in1010.5 mb 0.00 in0.0 mm 0.00 in0.0 mm 0.00 in0.0 mm
12:50 PM 101.4°F38.6°C 53.0°F11.7°C 20% 2.0 mph SW3.2 kmh SW 10.0 mph16.1 kmh 29.84 in1010.5 mb 0.00 in0.0 mm 0.00 in0.0 mm 0.00 in0.0 mm
01:00 PM 102.2°F39.0°C 55.0°F12.8°C 21% 2.3 mph NW3.7 kmh NW 6.0 mph9.7 kmh 29.84 in1010.5 mb 0.00 in0.0 mm 0.00 in0.0 mm 0.00 in0.0 mm
01:10 PM 103.0°F39.4°C 55.0°F12.8°C 20% 0.9 mph SW1.4 kmh SW 9.0 mph14.5 kmh 29.84 in1010.5 mb 0.00 in0.0 mm 0.00 in0.0 mm 0.00 in0.0 mm
01:20 PM 102.4°F39.1°C 54.0°F12.2°C 20% 4.2 mph SW6.8 kmh SW 9.0 mph14.5 kmh 29.84 in1010.5 mb 0.00 in0.0 mm 0.00 in0.0 mm 0.00 in0.0 mm
01:30 PM 102.1°F38.9°C 57.0°F13.9°C 22% 3.3 mph SE5.3 kmh SE 10.0 mph16.1 kmh 29.84 in1010.5 mb 0.00 in0.0 mm 0.00 in0.0 mm 0.00 in0.0 mm
01:40 PM 102.9°F39.4°C 56.0°F13.3°C 21% 1.3 mph NW2.1 kmh NW 10.0 mph16.1 kmh 29.84 in1010.5 mb 0.00 in0.0 mm 0.00 in0.0 mm 0.00 in0.0 mm
01:50 PM 102.4°F39.1°C 56.0°F13.3°C 21% 3.0 mph SW4.8 kmh SW 9.0 mph14.5 kmh 29.84 in1010.5 mb 0.00 in0.0 mm 0.00 in0.0 mm 0.00 in0.0 mm
02:00 PM 102.7°F39.3°C 56.0°F13.3°C 21% 3.9 mph NE6.3 kmh NE 11.0 mph17.7 kmh 29.84 in1010.5 mb 0.00 in0.0 mm 0.00 in0.0 mm 0.00 in0.0 mm
02:10 PM 104.3°F40.2°C 54.0°F12.2°C 19% 2.7 mph ENE4.3 kmh ENE 7.0 mph11.3 kmh 29.84 in1010.5 mb 0.00 in0.0 mm 0.00 in0.0 mm 0.00 in0.0 mm
02:20 PM 104.5°F40.3°C 55.0°F12.8°C 19% 1.4 mph NW2.3 kmh NW 5.0 mph8.0 kmh 29.84 in1010.5 mb 0.00 in0.0 mm 0.00 in0.0 mm 0.00 in0.0 mm
02:30 PM 104.8°F40.4°C 53.0°F11.7°C 18% 4.1 mph E6.6 kmh E 8.0 mph12.9 kmh 29.84 in1010.5 mb 0.00 in0.0 mm 0.00 in0.0 mm 0.00 in0.0 mm
02:40 PM 105.0°F40.6°C 52.0°F11.1°C 17% 1.5 mph SE2.4 kmh SE 5.0 mph8.0 kmh 29.84 in1010.5 mb 0.00 in0.0 mm 0.00 in0.0 mm 0.00 in0.0 mm
02:50 PM 105.1°F40.6°C 52.0°F11.1°C 17% 1.3 mph SW2.1 kmh SW 6.0 mph9.7 kmh 29.84 in1010.5 mb 0.00 in0.0 mm 0.00 in0.0 mm 0.00 in0.0 mm
03:00 PM 105.5°F40.8°C 55.0°F12.8°C 19% 2.2 mph SSW3.5 kmh SSW 10.0 mph16.1 kmh 29.84 in1010.5 mb 0.00 in0.0 mm 0.00 in0.0 mm 0.00 in0.0 mm
03:10 PM 105.3°F40.7°C 54.0°F12.2°C 18% 2.1 mph NW3.4 kmh NW 7.0 mph11.3 kmh 29.84 in1010.5 mb 0.00 in0.0 mm 0.00 in0.0 mm 0.00 in0.0 mm
03:20 PM 104.8°F40.4°C 53.0°F11.7°C 18% 2.4 mph E3.9 kmh E 9.0 mph14.5 kmh 29.84 in1010.5 mb 0.00 in0.0 mm 0.00 in0.0 mm 0.00 in0.0 mm
03:30 PM 104.8°F40.4°C 55.0°F12.8°C 19% 3.2 mph SSW5.1 kmh SSW 9.0 mph14.5 kmh 29.84 in1010.5 mb 0.00 in0.0 mm 0.00 in0.0 mm 0.00 in0.0 mm
03:40 PM 105.7°F40.9°C 53.0°F11.7°C 17% 2.0 mph NW3.2 kmh NW 8.0 mph12.9 kmh 29.84 in1010.5 mb 0.00 in0.0 mm 0.00 in0.0 mm 0.00 in0.0 mm
03:50 PM 105.2°F40.7°C 51.0°F10.6°C 16% 1.7 mph W2.7 kmh W 9.0 mph14.5 kmh 29.84 in1010.5 mb 0.00 in0.0 mm 0.00 in0.0 mm 0.00 in0.0 mm
04:00 PM 105.3°F40.7°C 51.0°F10.6°C 16% 3.6 mph WSW5.8 kmh WSW 10.0 mph16.1 kmh 29.84 in1010.5 mb 0.00 in0.0 mm 0.00 in0.0 mm 0.00 in0.0 mm
04:10 PM 104.6°F40.3°C 50.0°F10.0°C 16% 4.0 mph SW6.4 kmh SW 10.0 mph16.1 kmh 29.84 in1010.5 mb 0.00 in0.0 mm 0.00 in0.0 mm 0.00 in0.0 mm
04:20 PM 104.8°F40.4°C 50.0°F10.0°C 16% 1.2 mph SW1.9 kmh SW 7.0 mph11.3 kmh 29.84 in1010.5 mb 0.00 in0.0 mm 0.00 in0.0 mm 0.00 in0.0 mm
04:30 PM 105.0°F40.6°C 52.0°F11.1°C 17% 2.0 mph NW3.2 kmh NW 8.0 mph12.9 kmh 29.84 in1010.5 mb 0.00 in0.0 mm 0.00 in0.0 mm 0.00 in0.0 mm
04:40 PM 104.7°F40.4°C 52.0°F11.1°C 17% 1.8 mph SW2.9 kmh SW 8.0 mph12.9 kmh 29.84 in1010.5 mb 0.00 in0.0 mm 0.00 in0.0 mm 0.00 in0.0 mm
04:50 PM 104.2°F40.1°C 51.0°F10.6°C 17% 1.1 mph SSW1.8 kmh SSW 8.0 mph12.9 kmh 29.84 in1010.5 mb 0.00 in0.0 mm 0.00 in0.0 mm 0.00 in0.0 mm
05:00 PM 104.4°F40.2°C 53.0°F11.7°C 18% 3.4 mph SW5.5 kmh SW 10.0 mph16.1 kmh 29.84 in1010.5 mb 0.00 in0.0 mm 0.00 in0.0 mm 0.00 in0.0 mm
05:10 PM 104.7°F40.4°C 52.0°F11.1°C 17% 1.7 mph N2.7 kmh N 10.0 mph16.1 kmh 29.84 in1010.5 mb 0.00 in0.0 mm 0.00 in0.0 mm 0.00 in0.0 mm
05:20 PM 104.7°F40.4°C 52.0°F11.1°C 17% 2.9 mph SE4.7 kmh SE 9.0 mph14.5 kmh 29.84 in1010.5 mb 0.00 in0.0 mm 0.00 in0.0 mm 0.00 in0.0 mm
05:30 PM 104.8°F40.4°C 52.0°F11.1°C 17% 4.1 mph SSW6.6 kmh SSW 9.0 mph14.5 kmh 29.84 in1010.5 mb 0.00 in0.0 mm 0.00 in0.0 mm 0.00 in0.0 mm
05:40 PM 104.3°F40.2°C 51.0°F10.6°C 17% 4.3 mph SSW6.9 kmh SSW 11.0 mph17.7 kmh 29.84 in1010.5 mb 0.00 in0.0 mm 0.00 in0.0 mm 0.00 in0.0 mm
05:50 PM 104.3°F40.2°C 51.0°F10.6°C 17% 4.0 mph WSW6.4 kmh WSW 12.0 mph19.3 kmh 29.84 in1010.5 mb 0.00 in0.0 mm 0.00 in0.0 mm 0.00 in0.0 mm
06:00 PM 104.2°F40.1°C 51.0°F10.6°C 17% 3.3 mph SW5.3 kmh SW 13.0 mph20.9 kmh 29.84 in1010.5 mb 0.00 in0.0 mm 0.00 in0.0 mm 0.00 in0.0 mm
06:10 PM 103.9°F39.9°C 51.0°F10.6°C 17% 3.1 mph SSW5.0 kmh SSW 12.0 mph19.3 kmh 29.84 in1010.5 mb 0.00 in0.0 mm 0.00 in0.0 mm 0.00 in0.0 mm
06:20 PM 103.5°F39.7°C 51.0°F10.6°C 17% 3.0 mph SW4.8 kmh SW 9.0 mph14.5 kmh 29.84 in1010.5 mb 0.00 in0.0 mm 0.00 in0.0 mm 0.00 in0.0 mm
06:30 PM 103.5°F39.7°C 49.0°F9.4°C 16% 4.3 mph SW6.9 kmh SW 9.0 mph14.5 kmh 29.84 in1010.5 mb 0.00 in0.0 mm 0.00 in0.0 mm 0.00 in0.0 mm
06:40 PM 103.1°F39.5°C 49.0°F9.4°C 16% 5.1 mph SW8.2 kmh SW 12.0 mph19.3 kmh 29.84 in1010.5 mb 0.00 in0.0 mm 0.00 in0.0 mm 0.00 in0.0 mm
06:50 PM 102.9°F39.4°C 49.0°F9.4°C 16% 4.7 mph SSE7.6 kmh SSE 12.0 mph19.3 kmh 29.84 in1010.5 mb 0.00 in0.0 mm 0.00 in0.0 mm 0.00 in0.0 mm
07:00 PM 102.7°F39.3°C 49.0°F9.4°C 16% 3.9 mph SSW6.3 kmh SSW 10.0 mph16.1 kmh 29.84 in1010.5 mb 0.00 in0.0 mm 0.00 in0.0 mm 0.00 in0.0 mm
07:10 PM 102.4°F39.1°C 50.0°F10.0°C 17% 4.3 mph SW6.9 kmh SW 11.0 mph17.7 kmh 29.84 in1010.5 mb 0.00 in0.0 mm 0.00 in0.0 mm 0.00 in0.0 mm
07:20 PM 102.0°F38.9°C 50.0°F10.0°C 17% 3.8 mph SSE6.1 kmh SSE 8.0 mph12.9 kmh 29.84 in1010.5 mb 0.00 in0.0 mm 0.00 in0.0 mm 0.00 in0.0 mm
07:30 PM 101.5°F38.6°C 51.0°F10.6°C 18% 3.1 mph SSW5.0 kmh SSW 11.0 mph17.7 kmh 29.84 in1010.5 mb 0.00 in0.0 mm 0.00 in0.0 mm 0.00 in0.0 mm
07:40 PM 101.0°F38.3°C 52.0°F11.1°C 19% 3.9 mph SW6.3 kmh SW 14.0 mph22.5 kmh 29.84 in1010.5 mb 0.00 in0.0 mm 0.00 in0.0 mm 0.00 in0.0 mm
07:50 PM 100.6°F38.1°C 51.0°F10.6°C 19% 4.0 mph WSW6.4 kmh WSW 12.0 mph19.3 kmh 29.84 in1010.5 mb 0.00 in0.0 mm 0.00 in0.0 mm 0.00 in0.0 mm
08:00 PM 100.3°F37.9°C 51.0°F10.6°C 19% 3.5 mph SSW5.6 kmh SSW 10.0 mph16.1 kmh 29.84 in1010.5 mb 0.00 in0.0 mm 0.00 in0.0 mm 0.00 in0.0 mm
08:10 PM 100.0°F37.8°C 51.0°F10.6°C 19% 3.1 mph SW5.0 kmh SW 13.0 mph20.9 kmh 29.84 in1010.5 mb 0.00 in0.0 mm 0.00 in0.0 mm 0.00 in0.0 mm
08:20 PM 99.7°F37.6°C 51.0°F10.6°C 19% 3.9 mph SW6.3 kmh SW 9.0 mph14.5 kmh 29.84 in1010.5 mb 0.00 in0.0 mm 0.00 in0.0 mm 0.00 in0.0 mm
08:30 PM 99.3°F37.4°C 50.0°F10.0°C 19% 2.5 mph SW4.0 kmh SW 7.0 mph11.3 kmh 29.84 in1010.5 mb 0.00 in0.0 mm 0.00 in0.0 mm 0.00 in0.0 mm
08:40 PM 99.0°F37.2°C 50.0°F10.0°C 19% 2.4 mph SW3.9 kmh SW 6.0 mph9.7 kmh 29.84 in1010.5 mb 0.00 in0.0 mm 0.00 in0.0 mm 0.00 in0.0 mm
08:50 PM 98.7°F37.1°C 50.0°F10.0°C 19% 2.6 mph SW4.2 kmh SW 8.0 mph12.9 kmh 29.84 in1010.5 mb 0.00 in0.0 mm 0.00 in0.0 mm 0.00 in0.0 mm
09:00 PM 98.5°F36.9°C 51.0°F10.6°C 20% 2.3 mph S3.7 kmh S 6.0 mph9.7 kmh 29.84 in1010.5 mb 0.00 in0.0 mm 0.00 in0.0 mm 0.00 in0.0 mm
09:10 PM 98.2°F36.8°C 51.0°F10.6°C 20% 1.7 mph SSW2.7 kmh SSW 7.0 mph11.3 kmh 29.84 in1010.5 mb 0.00 in0.0 mm 0.00 in0.0 mm 0.00 in0.0 mm
09:20 PM 98.1°F36.7°C 52.0°F11.1°C 21% 2.9 mph SW4.7 kmh SW 6.0 mph9.7 kmh 29.84 in1010.5 mb 0.00 in0.0 mm 0.00 in0.0 mm 0.00 in0.0 mm
09:30 PM 97.6°F36.4°C 53.0°F11.7°C 22% 0.6 mph SSW1.0 kmh SSW 4.0 mph6.4 kmh 29.84 in1010.5 mb 0.00 in0.0 mm 0.00 in0.0 mm 0.00 in0.0 mm
09:40 PM 97.4°F36.3°C 54.0°F12.2°C 23% 1.6 mph SW2.6 kmh SW 7.0 mph11.3 kmh 29.84 in1010.5 mb 0.00 in0.0 mm 0.00 in0.0 mm 0.00 in0.0 mm
09:50 PM 97.3°F36.3°C 54.0°F12.2°C 23% 2.1 mph N3.4 kmh N 7.0 mph11.3 kmh 29.84 in1010.5 mb 0.00 in0.0 mm 0.00 in0.0 mm 0.00 in0.0 mm
10:00 PM 97.0°F36.1°C 56.0°F13.3°C 25% 2.1 mph WSW3.4 kmh WSW 9.0 mph14.5 kmh 29.84 in1010.5 mb 0.00 in0.0 mm 0.00 in0.0 mm 0.00 in0.0 mm
10:10 PM 96.2°F35.7°C 58.0°F14.4°C 28% 3.8 mph S6.1 kmh S 10.0 mph16.1 kmh 29.84 in1010.5 mb 0.00 in0.0 mm 0.00 in0.0 mm 0.00 in0.0 mm
10:20 PM 95.0°F35.0°C 61.0°F16.1°C 32% 3.7 mph SSW6.0 kmh SSW 8.0 mph12.9 kmh 29.84 in1010.5 mb 0.00 in0.0 mm 0.00 in0.0 mm 0.00 in0.0 mm
10:30 PM 93.9°F34.4°C 62.0°F16.7°C 34% 3.4 mph SW5.5 kmh SW 10.0 mph16.1 kmh 29.84 in1010.5 mb 0.00 in0.0 mm 0.00 in0.0 mm 0.00 in0.0 mm
10:40 PM 93.0°F33.9°C 62.0°F16.7°C 35% 3.8 mph WSW6.1 kmh WSW 11.0 mph17.7 kmh 29.84 in1010.5 mb 0.00 in0.0 mm 0.00 in0.0 mm 0.00 in0.0 mm
10:50 PM 92.4°F33.6°C 62.0°F16.7°C 36% 3.4 mph WSW5.5 kmh WSW 8.0 mph12.9 kmh 29.84 in1010.5 mb 0.00 in0.0 mm 0.00 in0.0 mm 0.00 in0.0 mm
11:00 PM 92.2°F33.4°C 62.0°F16.7°C 36% 3.3 mph SW5.3 kmh SW 9.0 mph14.5 kmh 29.84 in1010.5 mb 0.00 in0.0 mm 0.00 in0.0 mm 0.00 in0.0 mm
11:10 PM 92.1°F33.4°C 62.0°F16.7°C 36% 3.3 mph SW5.3 kmh SW 7.0 mph11.3 kmh 29.84 in1010.5 mb 0.00 in0.0 mm 0.00 in0.0 mm 0.00 in0.0 mm
11:20 PM 91.9°F33.3°C 61.0°F16.1°C 36% 2.1 mph ESE3.4 kmh ESE 6.0 mph9.7 kmh 29.84 in1010.5 mb 0.00 in0.0 mm 0.00 in0.0 mm 0.00 in0.0 mm
11:30 PM 91.6°F33.1°C 62.0°F16.7°C 37% 1.7 mph SW2.7 kmh SW 5.0 mph8.0 kmh 29.84 in1010.5 mb 0.00 in0.0 mm 0.00 in0.0 mm 0.00 in0.0 mm
11:40 PM 91.5°F33.1°C 62.0°F16.7°C 37% 1.9 mph SW3.1 kmh SW 4.0 mph6.4 kmh 29.84 in1010.5 mb 0.00 in0.0 mm 0.00 in0.0 mm 0.00 in0.0 mm
11:50 PM 91.1°F32.8°C 61.0°F16.1°C 37% 0.5 mph SW0.8 kmh SW 4.0 mph6.4 kmh 29.84 in1010.5 mb 0.00 in0.0 mm 0.00 in0.0 mm 0.00 in0.0 mm